sensor_id;sensor_type;location;lat;lon;timestamp;P1;durP1;ratioP1;P2;durP2;ratioP2
37609;SDS011;23457;51.966;8.230;2023-03-03T00:00:27;101.03;;;34.15;;
37609;SDS011;23457;51.966;8.230;2023-03-03T00:02:56;88.38;;;32.22;;
37609;SDS011;23457;51.966;8.230;2023-03-03T00:05:27;95.00;;;32.75;;
37609;SDS011;23457;51.966;8.230;2023-03-03T00:07:53;98.63;;;34.03;;
37609;SDS011;23457;51.966;8.230;2023-03-03T00:10:20;100.40;;;33.92;;
37609;SDS011;23457;51.966;8.230;2023-03-03T00:12:47;95.10;;;32.72;;
37609;SDS011;23457;51.966;8.230;2023-03-03T00:15:17;96.45;;;32.85;;
37609;SDS011;23457;51.966;8.230;2023-03-03T00:17:46;82.30;;;29.42;;
37609;SDS011;23457;51.966;8.230;2023-03-03T00:23:13;73.50;;;26.98;;
37609;SDS011;23457;51.966;8.230;2023-03-03T00:25:48;81.95;;;28.70;;
37609;SDS011;23457;51.966;8.230;2023-03-03T00:30:53;82.07;;;29.83;;
37609;SDS011;23457;51.966;8.230;2023-03-03T00:33:24;81.53;;;29.92;;
37609;SDS011;23457;51.966;8.230;2023-03-03T00:35:54;85.53;;;30.40;;
37609;SDS011;23457;51.966;8.230;2023-03-03T00:38:22;82.47;;;28.80;;
37609;SDS011;23457;51.966;8.230;2023-03-03T00:40:49;83.90;;;30.23;;
37609;SDS011;23457;51.966;8.230;2023-03-03T00:43:18;79.25;;;28.30;;
37609;SDS011;23457;51.966;8.230;2023-03-03T00:45:54;77.38;;;27.17;;
37609;SDS011;23457;51.966;8.230;2023-03-03T00:48:26;66.65;;;25.08;;
37609;SDS011;23457;51.966;8.230;2023-03-03T00:53:48;54.80;;;22.85;;
37609;SDS011;23457;51.966;8.230;2023-03-03T00:56:16;59.45;;;23.25;;
37609;SDS011;23457;51.966;8.230;2023-03-03T00:58:42;53.15;;;23.23;;
37609;SDS011;23457;51.966;8.230;2023-03-03T01:01:11;50.05;;;23.27;;
37609;SDS011;23457;51.966;8.230;2023-03-03T01:03:43;57.22;;;23.17;;
37609;SDS011;23457;51.966;8.230;2023-03-03T01:06:10;53.83;;;21.60;;
37609;SDS011;23457;51.966;8.230;2023-03-03T01:08:38;48.05;;;21.13;;
37609;SDS011;23457;51.966;8.230;2023-03-03T01:11:08;52.60;;;22.75;;
37609;SDS011;23457;51.966;8.230;2023-03-03T01:13:43;47.47;;;21.80;;
37609;SDS011;23457;51.966;8.230;2023-03-03T01:16:13;50.05;;;24.02;;
37609;SDS011;23457;51.966;8.230;2023-03-03T01:18:40;49.55;;;21.77;;
37609;SDS011;23457;51.966;8.230;2023-03-03T01:21:07;45.30;;;21.77;;
37609;SDS011;23457;51.966;8.230;2023-03-03T01:23:35;50.17;;;22.77;;
37609;SDS011;23457;51.966;8.230;2023-03-03T01:26:02;48.33;;;22.63;;
37609;SDS011;23457;51.966;8.230;2023-03-03T01:28:31;43.45;;;20.45;;
37609;SDS011;23457;51.966;8.230;2023-03-03T01:31:02;45.33;;;20.98;;
37609;SDS011;23457;51.966;8.230;2023-03-03T01:33:32;45.38;;;20.70;;
37609;SDS011;23457;51.966;8.230;2023-03-03T01:36:00;44.85;;;21.40;;
37609;SDS011;23457;51.966;8.230;2023-03-03T01:38:28;45.78;;;21.67;;
37609;SDS011;23457;51.966;8.230;2023-03-03T01:40:56;46.55;;;22.30;;
37609;SDS011;23457;51.966;8.230;2023-03-03T01:43:25;40.78;;;20.83;;
37609;SDS011;23457;51.966;8.230;2023-03-03T01:48:39;48.88;;;22.35;;
37609;SDS011;23457;51.966;8.230;2023-03-03T01:51:30;51.22;;;23.38;;
37609;SDS011;23457;51.966;8.230;2023-03-03T01:56:27;52.08;;;21.77;;
37609;SDS011;23457;51.966;8.230;2023-03-03T01:58:58;48.95;;;22.75;;
37609;SDS011;23457;51.966;8.230;2023-03-03T02:01:41;50.10;;;21.85;;
37609;SDS011;23457;51.966;8.230;2023-03-03T02:04:08;48.88;;;21.80;;
37609;SDS011;23457;51.966;8.230;2023-03-03T02:06:37;48.13;;;20.58;;
37609;SDS011;23457;51.966;8.230;2023-03-03T02:12:20;48.75;;;21.55;;
37609;SDS011;23457;51.966;8.230;2023-03-03T02:14:51;53.17;;;22.17;;
37609;SDS011;23457;51.966;8.230;2023-03-03T02:17:18;49.63;;;22.02;;
37609;SDS011;23457;51.966;8.230;2023-03-03T02:19:53;56.28;;;24.27;;
37609;SDS011;23457;51.966;8.230;2023-03-03T02:22:29;53.83;;;22.30;;
37609;SDS011;23457;51.966;8.230;2023-03-03T02:25:07;55.55;;;23.40;;
37609;SDS011;23457;51.966;8.230;2023-03-03T02:27:43;53.47;;;22.58;;
37609;SDS011;23457;51.966;8.230;2023-03-03T02:30:17;59.22;;;21.85;;
37609;SDS011;23457;51.966;8.230;2023-03-03T02:32:46;52.78;;;22.33;;
37609;SDS011;23457;51.966;8.230;2023-03-03T02:35:33;67.28;;;25.58;;
37609;SDS011;23457;51.966;8.230;2023-03-03T02:40:35;65.85;;;25.33;;
37609;SDS011;23457;51.966;8.230;2023-03-03T02:43:05;61.05;;;23.88;;
37609;SDS011;23457;51.966;8.230;2023-03-03T02:45:40;68.72;;;23.85;;
37609;SDS011;23457;51.966;8.230;2023-03-03T02:48:08;75.35;;;25.48;;
37609;SDS011;23457;51.966;8.230;2023-03-03T02:50:34;76.57;;;26.33;;
37609;SDS011;23457;51.966;8.230;2023-03-03T02:53:02;72.07;;;25.60;;
37609;SDS011;23457;51.966;8.230;2023-03-03T02:55:29;90.32;;;29.10;;
37609;SDS011;23457;51.966;8.230;2023-03-03T02:57:56;79.78;;;27.92;;
37609;SDS011;23457;51.966;8.230;2023-03-03T03:00:24;86.65;;;28.55;;
37609;SDS011;23457;51.966;8.230;2023-03-03T03:02:51;85.03;;;27.40;;
37609;SDS011;23457;51.966;8.230;2023-03-03T03:05:18;82.35;;;29.02;;
37609;SDS011;23457;51.966;8.230;2023-03-03T03:07:45;84.50;;;27.10;;
37609;SDS011;23457;51.966;8.230;2023-03-03T03:10:11;92.22;;;28.88;;
37609;SDS011;23457;51.966;8.230;2023-03-03T03:12:40;89.55;;;27.33;;
37609;SDS011;23457;51.966;8.230;2023-03-03T03:15:08;91.93;;;26.77;;
37609;SDS011;23457;51.966;8.230;2023-03-03T03:17:36;89.35;;;28.00;;
37609;SDS011;23457;51.966;8.230;2023-03-03T03:20:05;88.32;;;26.70;;
37609;SDS011;23457;51.966;8.230;2023-03-03T03:22:32;93.45;;;28.17;;
37609;SDS011;23457;51.966;8.230;2023-03-03T03:25:00;92.25;;;27.77;;
37609;SDS011;23457;51.966;8.230;2023-03-03T03:27:27;88.32;;;28.20;;
37609;SDS011;23457;51.966;8.230;2023-03-03T03:29:54;96.57;;;26.95;;
37609;SDS011;23457;51.966;8.230;2023-03-03T03:32:22;93.10;;;29.55;;
37609;SDS011;23457;51.966;8.230;2023-03-03T03:34:49;93.68;;;26.30;;
37609;SDS011;23457;51.966;8.230;2023-03-03T03:37:16;95.95;;;29.60;;
37609;SDS011;23457;51.966;8.230;2023-03-03T03:39:44;86.20;;;25.10;;
37609;SDS011;23457;51.966;8.230;2023-03-03T03:42:12;86.40;;;26.52;;
37609;SDS011;23457;51.966;8.230;2023-03-03T03:44:39;88.72;;;27.17;;
37609;SDS011;23457;51.966;8.230;2023-03-03T03:47:06;85.10;;;25.95;;
37609;SDS011;23457;51.966;8.230;2023-03-03T03:49:34;89.18;;;26.08;;
37609;SDS011;23457;51.966;8.230;2023-03-03T03:52:02;91.13;;;26.85;;
37609;SDS011;23457;51.966;8.230;2023-03-03T03:54:31;87.82;;;27.17;;
37609;SDS011;23457;51.966;8.230;2023-03-03T03:56:58;84.85;;;26.20;;
37609;SDS011;23457;51.966;8.230;2023-03-03T03:59:25;87.18;;;27.85;;
37609;SDS011;23457;51.966;8.230;2023-03-03T04:01:52;92.53;;;27.33;;
37609;SDS011;23457;51.966;8.230;2023-03-03T04:04:20;81.70;;;26.35;;
37609;SDS011;23457;51.966;8.230;2023-03-03T04:06:47;96.50;;;27.67;;
37609;SDS011;23457;51.966;8.230;2023-03-03T04:09:15;89.70;;;26.75;;
37609;SDS011;23457;51.966;8.230;2023-03-03T04:11:43;80.72;;;25.63;;
37609;SDS011;23457;51.966;8.230;2023-03-03T04:14:11;87.47;;;25.40;;
37609;SDS011;23457;51.966;8.230;2023-03-03T04:16:38;85.85;;;27.23;;
37609;SDS011;23457;51.966;8.230;2023-03-03T04:19:05;84.25;;;25.50;;
37609;SDS011;23457;51.966;8.230;2023-03-03T04:21:34;91.78;;;26.98;;
37609;SDS011;23457;51.966;8.230;2023-03-03T04:24:01;92.97;;;27.00;;
37609;SDS011;23457;51.966;8.230;2023-03-03T04:26:28;93.53;;;27.38;;
37609;SDS011;23457;51.966;8.230;2023-03-03T04:28:58;81.90;;;24.05;;
37609;SDS011;23457;51.966;8.230;2023-03-03T04:31:27;89.60;;;25.35;;
37609;SDS011;23457;51.966;8.230;2023-03-03T04:33:54;84.55;;;25.15;;
37609;SDS011;23457;51.966;8.230;2023-03-03T04:36:21;85.22;;;25.00;;
37609;SDS011;23457;51.966;8.230;2023-03-03T04:38:48;90.07;;;26.60;;
37609;SDS011;23457;51.966;8.230;2023-03-03T04:41:16;90.35;;;25.42;;
37609;SDS011;23457;51.966;8.230;2023-03-03T04:43:44;88.00;;;25.33;;
37609;SDS011;23457;51.966;8.230;2023-03-03T04:46:12;90.18;;;24.98;;
37609;SDS011;23457;51.966;8.230;2023-03-03T04:48:38;84.68;;;25.75;;
37609;SDS011;23457;51.966;8.230;2023-03-03T04:51:05;83.38;;;25.00;;
37609;SDS011;23457;51.966;8.230;2023-03-03T04:53:34;89.10;;;26.00;;
37609;SDS011;23457;51.966;8.230;2023-03-03T04:56:02;92.55;;;25.70;;
37609;SDS011;23457;51.966;8.230;2023-03-03T04:58:30;88.10;;;25.75;;
37609;SDS011;23457;51.966;8.230;2023-03-03T05:00:57;93.50;;;26.35;;
37609;SDS011;23457;51.966;8.230;2023-03-03T05:03:26;88.70;;;25.13;;
37609;SDS011;23457;51.966;8.230;2023-03-03T05:05:53;82.15;;;23.67;;
37609;SDS011;23457;51.966;8.230;2023-03-03T05:08:20;90.45;;;25.17;;
37609;SDS011;23457;51.966;8.230;2023-03-03T05:10:54;92.30;;;25.58;;
37609;SDS011;23457;51.966;8.230;2023-03-03T05:13:21;88.55;;;25.23;;
37609;SDS011;23457;51.966;8.230;2023-03-03T05:15:54;93.50;;;24.25;;
37609;SDS011;23457;51.966;8.230;2023-03-03T05:18:25;84.32;;;25.02;;
37609;SDS011;23457;51.966;8.230;2023-03-03T05:20:53;90.95;;;23.75;;
37609;SDS011;23457;51.966;8.230;2023-03-03T05:23:20;81.78;;;23.92;;
37609;SDS011;23457;51.966;8.230;2023-03-03T05:25:49;77.93;;;23.98;;
37609;SDS011;23457;51.966;8.230;2023-03-03T05:28:16;83.80;;;23.05;;
37609;SDS011;23457;51.966;8.230;2023-03-03T05:30:43;98.32;;;26.80;;
37609;SDS011;23457;51.966;8.230;2023-03-03T05:33:12;82.15;;;23.85;;
37609;SDS011;23457;51.966;8.230;2023-03-03T05:35:46;84.40;;;24.77;;
37609;SDS011;23457;51.966;8.230;2023-03-03T05:38:18;85.93;;;24.10;;
37609;SDS011;23457;51.966;8.230;2023-03-03T05:40:45;83.10;;;23.23;;
37609;SDS011;23457;51.966;8.230;2023-03-03T05:43:12;84.72;;;22.42;;
37609;SDS011;23457;51.966;8.230;2023-03-03T05:45:39;77.47;;;22.27;;
37609;SDS011;23457;51.966;8.230;2023-03-03T05:48:06;80.95;;;21.70;;
37609;SDS011;23457;51.966;8.230;2023-03-03T05:50:32;78.35;;;23.10;;
37609;SDS011;23457;51.966;8.230;2023-03-03T05:52:59;88.82;;;22.27;;
37609;SDS011;23457;51.966;8.230;2023-03-03T05:55:26;83.80;;;22.52;;
37609;SDS011;23457;51.966;8.230;2023-03-03T05:57:53;82.43;;;21.35;;
37609;SDS011;23457;51.966;8.230;2023-03-03T06:00:21;87.22;;;23.48;;
37609;SDS011;23457;51.966;8.230;2023-03-03T06:02:48;79.75;;;21.92;;
37609;SDS011;23457;51.966;8.230;2023-03-03T06:05:14;85.43;;;23.10;;
37609;SDS011;23457;51.966;8.230;2023-03-03T06:07:41;80.10;;;21.77;;
37609;SDS011;23457;51.966;8.230;2023-03-03T06:10:08;80.50;;;20.85;;
37609;SDS011;23457;51.966;8.230;2023-03-03T06:12:41;87.97;;;22.40;;
37609;SDS011;23457;51.966;8.230;2023-03-03T06:15:08;78.03;;;22.58;;
37609;SDS011;23457;51.966;8.230;2023-03-03T06:17:35;76.72;;;21.25;;
37609;SDS011;23457;51.966;8.230;2023-03-03T06:20:02;81.07;;;21.58;;
37609;SDS011;23457;51.966;8.230;2023-03-03T06:22:29;80.78;;;21.08;;
37609;SDS011;23457;51.966;8.230;2023-03-03T06:24:57;83.45;;;21.85;;
37609;SDS011;23457;51.966;8.230;2023-03-03T06:27:23;86.38;;;21.83;;
37609;SDS011;23457;51.966;8.230;2023-03-03T06:29:50;84.97;;;23.17;;
37609;SDS011;23457;51.966;8.230;2023-03-03T06:32:17;76.00;;;19.30;;
37609;SDS011;23457;51.966;8.230;2023-03-03T06:34:44;74.30;;;20.88;;
37609;SDS011;23457;51.966;8.230;2023-03-03T06:37:10;78.25;;;21.63;;
37609;SDS011;23457;51.966;8.230;2023-03-03T06:39:37;78.30;;;21.48;;
37609;SDS011;23457;51.966;8.230;2023-03-03T06:42:04;90.38;;;23.13;;
37609;SDS011;23457;51.966;8.230;2023-03-03T06:44:32;80.35;;;23.05;;
37609;SDS011;23457;51.966;8.230;2023-03-03T06:46:59;80.35;;;22.88;;
37609;SDS011;23457;51.966;8.230;2023-03-03T06:49:26;88.68;;;23.60;;
37609;SDS011;23457;51.966;8.230;2023-03-03T06:51:52;88.82;;;22.02;;
37609;SDS011;23457;51.966;8.230;2023-03-03T06:54:20;92.47;;;24.20;;
37609;SDS011;23457;51.966;8.230;2023-03-03T06:57:00;88.30;;;23.58;;
37609;SDS011;23457;51.966;8.230;2023-03-03T06:59:39;88.50;;;24.88;;
37609;SDS011;23457;51.966;8.230;2023-03-03T07:02:14;96.82;;;24.35;;
37609;SDS011;23457;51.966;8.230;2023-03-03T07:04:43;90.13;;;22.27;;
37609;SDS011;23457;51.966;8.230;2023-03-03T07:07:16;94.45;;;23.08;;
37609;SDS011;23457;51.966;8.230;2023-03-03T07:09:49;85.25;;;22.55;;
37609;SDS011;23457;51.966;8.230;2023-03-03T07:12:28;90.13;;;23.30;;
37609;SDS011;23457;51.966;8.230;2023-03-03T07:17:44;86.95;;;22.27;;
37609;SDS011;23457;51.966;8.230;2023-03-03T07:20:17;96.70;;;25.63;;
37609;SDS011;23457;51.966;8.230;2023-03-03T07:22:47;93.38;;;24.45;;
37609;SDS011;23457;51.966;8.230;2023-03-03T07:25:21;97.65;;;25.45;;
37609;SDS011;23457;51.966;8.230;2023-03-03T07:30:58;87.30;;;22.40;;
37609;SDS011;23457;51.966;8.230;2023-03-03T07:33:30;82.57;;;23.27;;
37609;SDS011;23457;51.966;8.230;2023-03-03T07:36:05;100.43;;;25.30;;
37609;SDS011;23457;51.966;8.230;2023-03-03T07:38:47;93.20;;;24.55;;
37609;SDS011;23457;51.966;8.230;2023-03-03T07:41:20;86.07;;;22.63;;
37609;SDS011;23457;51.966;8.230;2023-03-03T07:43:49;77.80;;;18.73;;
37609;SDS011;23457;51.966;8.230;2023-03-03T07:48:50;93.72;;;26.08;;
37609;SDS011;23457;51.966;8.230;2023-03-03T07:51:19;90.85;;;23.98;;
37609;SDS011;23457;51.966;8.230;2023-03-03T07:53:51;100.63;;;26.88;;
37609;SDS011;23457;51.966;8.230;2023-03-03T07:56:27;97.45;;;26.45;;
37609;SDS011;23457;51.966;8.230;2023-03-03T07:58:56;98.60;;;25.30;;
37609;SDS011;23457;51.966;8.230;2023-03-03T08:04:31;90.93;;;25.08;;
37609;SDS011;23457;51.966;8.230;2023-03-03T08:07:24;92.28;;;24.80;;
37609;SDS011;23457;51.966;8.230;2023-03-03T08:09:56;91.30;;;24.85;;
37609;SDS011;23457;51.966;8.230;2023-03-03T08:12:38;99.75;;;26.70;;
37609;SDS011;23457;51.966;8.230;2023-03-03T08:15:51;89.90;;;23.92;;
37609;SDS011;23457;51.966;8.230;2023-03-03T08:18:07;92.65;;;25.70;;
37609;SDS011;23457;51.966;8.230;2023-03-03T08:20:45;88.53;;;24.80;;
37609;SDS011;23457;51.966;8.230;2023-03-03T08:23:14;94.40;;;25.73;;
37609;SDS011;23457;51.966;8.230;2023-03-03T08:25:41;94.00;;;24.85;;
37609;SDS011;23457;51.966;8.230;2023-03-03T08:28:09;95.32;;;24.27;;
37609;SDS011;23457;51.966;8.230;2023-03-03T08:30:37;84.30;;;24.33;;
37609;SDS011;23457;51.966;8.230;2023-03-03T08:33:04;86.45;;;24.05;;
37609;SDS011;23457;51.966;8.230;2023-03-03T08:35:31;86.15;;;24.10;;
37609;SDS011;23457;51.966;8.230;2023-03-03T08:37:57;86.75;;;24.63;;
37609;SDS011;23457;51.966;8.230;2023-03-03T08:40:24;83.07;;;23.20;;
37609;SDS011;23457;51.966;8.230;2023-03-03T08:42:51;94.03;;;25.08;;
37609;SDS011;23457;51.966;8.230;2023-03-03T08:45:19;86.25;;;23.73;;
37609;SDS011;23457;51.966;8.230;2023-03-03T08:47:47;80.97;;;23.05;;
37609;SDS011;23457;51.966;8.230;2023-03-03T08:50:13;88.70;;;24.52;;
37609;SDS011;23457;51.966;8.230;2023-03-03T08:52:40;84.93;;;25.73;;
37609;SDS011;23457;51.966;8.230;2023-03-03T08:55:07;85.38;;;24.73;;
37609;SDS011;23457;51.966;8.230;2023-03-03T08:57:36;73.40;;;23.67;;
37609;SDS011;23457;51.966;8.230;2023-03-03T09:00:08;75.78;;;23.73;;
37609;SDS011;23457;51.966;8.230;2023-03-03T09:02:38;89.93;;;25.90;;
37609;SDS011;23457;51.966;8.230;2023-03-03T09:05:05;82.57;;;24.90;;
37609;SDS011;23457;51.966;8.230;2023-03-03T09:07:32;89.93;;;26.67;;
37609;SDS011;23457;51.966;8.230;2023-03-03T09:10:00;80.20;;;24.75;;
37609;SDS011;23457;51.966;8.230;2023-03-03T09:12:34;80.10;;;24.88;;
37609;SDS011;23457;51.966;8.230;2023-03-03T09:15:11;81.97;;;25.05;;
37609;SDS011;23457;51.966;8.230;2023-03-03T09:17:40;83.35;;;24.48;;
37609;SDS011;23457;51.966;8.230;2023-03-03T09:20:27;79.90;;;25.45;;
37609;SDS011;23457;51.966;8.230;2023-03-03T09:25:50;78.13;;;24.83;;
37609;SDS011;23457;51.966;8.230;2023-03-03T09:30:51;75.30;;;22.63;;
37609;SDS011;23457;51.966;8.230;2023-03-03T09:38:49;81.75;;;23.27;;
37609;SDS011;23457;51.966;8.230;2023-03-03T09:52:36;78.78;;;23.42;;
37609;SDS011;23457;51.966;8.230;2023-03-03T10:05:59;74.47;;;23.15;;
37609;SDS011;23457;51.966;8.230;2023-03-03T10:11:37;67.13;;;21.52;;
37609;SDS011;23457;51.966;8.230;2023-03-03T10:14:49;71.75;;;23.75;;
37609;SDS011;23457;51.966;8.230;2023-03-03T10:23:19;68.38;;;23.50;;
37609;SDS011;23457;51.966;8.230;2023-03-03T10:26:01;65.07;;;22.27;;
37609;SDS011;23457;51.966;8.230;2023-03-03T10:56:34;55.38;;;20.02;;
37609;SDS011;23457;51.966;8.230;2023-03-03T11:02:28;52.67;;;18.45;;
37609;SDS011;23457;51.966;8.230;2023-03-03T11:05:11;63.05;;;20.50;;
37609;SDS011;23457;51.966;8.230;2023-03-03T11:07:55;56.50;;;18.92;;
37609;SDS011;23457;51.966;8.230;2023-03-03T11:20:52;62.70;;;22.42;;
37609;SDS011;23457;51.966;8.230;2023-03-03T11:31:44;61.25;;;20.15;;
37609;SDS011;23457;51.966;8.230;2023-03-03T11:37:12;62.90;;;21.80;;
37609;SDS011;23457;51.966;8.230;2023-03-03T11:39:45;58.47;;;20.98;;
37609;SDS011;23457;51.966;8.230;2023-03-03T11:44:44;56.88;;;21.20;;
37609;SDS011;23457;51.966;8.230;2023-03-03T11:49:49;59.55;;;19.83;;
37609;SDS011;23457;51.966;8.230;2023-03-03T11:55:13;51.60;;;19.35;;
37609;SDS011;23457;51.966;8.230;2023-03-03T12:00:50;51.63;;;18.75;;
37609;SDS011;23457;51.966;8.230;2023-03-03T12:03:33;50.92;;;19.25;;
37609;SDS011;23457;51.966;8.230;2023-03-03T12:08:50;48.20;;;18.20;;
37609;SDS011;23457;51.966;8.230;2023-03-03T12:16:54;45.58;;;17.13;;
37609;SDS011;23457;51.966;8.230;2023-03-03T12:27:46;34.65;;;13.95;;
37609;SDS011;23457;51.966;8.230;2023-03-03T12:36:02;36.92;;;14.00;;
37609;SDS011;23457;51.966;8.230;2023-03-03T12:41:34;37.28;;;14.55;;
37609;SDS011;23457;51.966;8.230;2023-03-03T12:44:07;35.28;;;14.35;;
37609;SDS011;23457;51.966;8.230;2023-03-03T13:06:28;39.05;;;15.25;;
37609;SDS011;23457;51.966;8.230;2023-03-03T13:20:03;31.33;;;13.35;;
37609;SDS011;23457;51.966;8.230;2023-03-03T13:22:46;33.83;;;15.38;;
37609;SDS011;23457;51.966;8.230;2023-03-03T13:30:49;29.05;;;13.23;;
37609;SDS011;23457;51.966;8.230;2023-03-03T13:36:06;30.38;;;13.40;;
37609;SDS011;23457;51.966;8.230;2023-03-03T13:38:37;28.60;;;13.80;;
37609;SDS011;23457;51.966;8.230;2023-03-03T13:44:08;30.73;;;13.15;;
37609;SDS011;23457;51.966;8.230;2023-03-03T13:46:42;36.63;;;14.65;;
37609;SDS011;23457;51.966;8.230;2023-03-03T13:52:04;26.25;;;11.88;;
37609;SDS011;23457;51.966;8.230;2023-03-03T13:57:24;29.67;;;11.90;;
37609;SDS011;23457;51.966;8.230;2023-03-03T14:00:18;29.88;;;12.40;;
37609;SDS011;23457;51.966;8.230;2023-03-03T14:05:35;31.33;;;14.00;;
37609;SDS011;23457;51.966;8.230;2023-03-03T14:11:07;30.10;;;13.30;;
37609;SDS011;23457;51.966;8.230;2023-03-03T14:13:54;31.90;;;14.57;;
37609;SDS011;23457;51.966;8.230;2023-03-03T14:19:00;32.83;;;16.10;;
37609;SDS011;23457;51.966;8.230;2023-03-03T14:21:38;39.47;;;16.90;;
37609;SDS011;23457;51.966;8.230;2023-03-03T14:24:13;42.33;;;19.02;;
37609;SDS011;23457;51.966;8.230;2023-03-03T14:26:49;44.00;;;19.23;;
37609;SDS011;23457;51.966;8.230;2023-03-03T14:31:57;43.90;;;18.95;;
37609;SDS011;23457;51.966;8.230;2023-03-03T14:42:57;36.03;;;16.80;;
37609;SDS011;23457;51.966;8.230;2023-03-03T14:45:36;37.50;;;17.55;;
37609;SDS011;23457;51.966;8.230;2023-03-03T14:48:25;39.53;;;19.00;;
37609;SDS011;23457;51.966;8.230;2023-03-03T14:50:59;42.35;;;18.92;;
37609;SDS011;23457;51.966;8.230;2023-03-03T14:53:44;41.83;;;18.80;;
37609;SDS011;23457;51.966;8.230;2023-03-03T14:56:24;42.65;;;19.17;;
37609;SDS011;23457;51.966;8.230;2023-03-03T14:59:18;42.22;;;18.05;;
37609;SDS011;23457;51.966;8.230;2023-03-03T15:04:42;42.38;;;18.23;;
37609;SDS011;23457;51.966;8.230;2023-03-03T15:09:53;36.00;;;18.60;;
37609;SDS011;23457;51.966;8.230;2023-03-03T15:12:40;42.42;;;19.38;;
37609;SDS011;23457;51.966;8.230;2023-03-03T15:15:18;43.88;;;18.33;;
37609;SDS011;23457;51.966;8.230;2023-03-03T15:31:14;46.80;;;19.25;;
37609;SDS011;23457;51.966;8.230;2023-03-03T15:53:17;42.35;;;18.80;;
37609;SDS011;23457;51.966;8.230;2023-03-03T16:01:28;44.05;;;20.05;;
37609;SDS011;23457;51.966;8.230;2023-03-03T16:03:58;45.38;;;19.90;;
37609;SDS011;23457;51.966;8.230;2023-03-03T16:25:16;44.72;;;19.02;;
37609;SDS011;23457;51.966;8.230;2023-03-03T16:27:51;45.95;;;20.35;;
37609;SDS011;23457;51.966;8.230;2023-03-03T16:31:04;48.45;;;19.67;;
37609;SDS011;23457;51.966;8.230;2023-03-03T16:36:29;35.63;;;14.83;;
37609;SDS011;23457;51.966;8.230;2023-03-03T16:39:21;42.38;;;19.15;;
37609;SDS011;23457;51.966;8.230;2023-03-03T16:47:28;44.88;;;19.77;;
37609;SDS011;23457;51.966;8.230;2023-03-03T16:58:19;52.83;;;24.60;;
37609;SDS011;23457;51.966;8.230;2023-03-03T17:06:54;46.63;;;18.98;;
37609;SDS011;23457;51.966;8.230;2023-03-03T17:14:56;46.83;;;19.02;;
37609;SDS011;23457;51.966;8.230;2023-03-03T17:39:13;43.58;;;18.67;;
37609;SDS011;23457;51.966;8.230;2023-03-03T17:47:45;50.33;;;22.20;;
37609;SDS011;23457;51.966;8.230;2023-03-03T18:03:31;50.47;;;21.45;;
37609;SDS011;23457;51.966;8.230;2023-03-03T18:09:00;45.13;;;19.85;;
37609;SDS011;23457;51.966;8.230;2023-03-03T18:20:27;46.42;;;19.83;;
37609;SDS011;23457;51.966;8.230;2023-03-03T18:23:25;46.97;;;19.27;;
37609;SDS011;23457;51.966;8.230;2023-03-03T18:26:04;47.40;;;19.17;;
37609;SDS011;23457;51.966;8.230;2023-03-03T18:31:44;51.70;;;21.65;;
37609;SDS011;23457;51.966;8.230;2023-03-03T18:39:41;45.08;;;17.58;;
37609;SDS011;23457;51.966;8.230;2023-03-03T18:44:44;47.00;;;20.23;;
37609;SDS011;23457;51.966;8.230;2023-03-03T18:47:13;56.13;;;20.60;;
37609;SDS011;23457;51.966;8.230;2023-03-03T18:52:22;56.33;;;25.27;;
37609;SDS011;23457;51.966;8.230;2023-03-03T18:57:36;50.97;;;20.63;;
37609;SDS011;23457;51.966;8.230;2023-03-03T19:00:13;50.78;;;20.83;;
37609;SDS011;23457;51.966;8.230;2023-03-03T19:02:55;53.53;;;22.50;;
37609;SDS011;23457;51.966;8.230;2023-03-03T19:07:57;47.78;;;20.60;;
37609;SDS011;23457;51.966;8.230;2023-03-03T19:10:46;50.40;;;21.45;;
37609;SDS011;23457;51.966;8.230;2023-03-03T19:18:33;48.15;;;21.58;;
37609;SDS011;23457;51.966;8.230;2023-03-03T19:21:28;56.78;;;23.88;;
37609;SDS011;23457;51.966;8.230;2023-03-03T19:23:58;53.30;;;21.95;;
37609;SDS011;23457;51.966;8.230;2023-03-03T19:29:03;54.08;;;21.65;;
37609;SDS011;23457;51.966;8.230;2023-03-03T19:31:55;49.95;;;20.67;;
37609;SDS011;23457;51.966;8.230;2023-03-03T19:48:30;51.28;;;20.00;;
37609;SDS011;23457;51.966;8.230;2023-03-03T19:51:19;49.05;;;19.88;;
37609;SDS011;23457;51.966;8.230;2023-03-03T19:56:47;46.15;;;19.40;;
37609;SDS011;23457;51.966;8.230;2023-03-03T19:59:19;46.10;;;20.63;;
37609;SDS011;23457;51.966;8.230;2023-03-03T20:21:32;43.42;;;19.30;;
37609;SDS011;23457;51.966;8.230;2023-03-03T20:24:23;41.70;;;18.25;;
37609;SDS011;23457;51.966;8.230;2023-03-03T20:27:13;43.88;;;17.85;;
37609;SDS011;23457;51.966;8.230;2023-03-03T20:35:23;39.42;;;17.27;;
37609;SDS011;23457;51.966;8.230;2023-03-03T20:46:29;39.70;;;17.85;;
37609;SDS011;23457;51.966;8.230;2023-03-03T21:00:14;45.00;;;17.38;;
37609;SDS011;23457;51.966;8.230;2023-03-03T21:03:37;42.30;;;17.48;;
37609;SDS011;23457;51.966;8.230;2023-03-03T21:06:07;37.95;;;17.50;;
37609;SDS011;23457;51.966;8.230;2023-03-03T21:11:15;41.92;;;17.75;;
37609;SDS011;23457;51.966;8.230;2023-03-03T21:13:48;35.75;;;15.77;;
37609;SDS011;23457;51.966;8.230;2023-03-03T21:21:32;35.30;;;16.60;;
37609;SDS011;23457;51.966;8.230;2023-03-03T21:24:04;34.08;;;15.32;;
37609;SDS011;23457;51.966;8.230;2023-03-03T21:31:58;37.33;;;15.35;;
37609;SDS011;23457;51.966;8.230;2023-03-03T21:34:30;34.75;;;15.00;;
37609;SDS011;23457;51.966;8.230;2023-03-03T21:37:03;28.25;;;13.60;;
37609;SDS011;23457;51.966;8.230;2023-03-03T21:39:33;34.17;;;15.00;;
37609;SDS011;23457;51.966;8.230;2023-03-03T21:42:05;32.03;;;14.90;;
37609;SDS011;23457;51.966;8.230;2023-03-03T21:44:39;29.60;;;13.35;;
37609;SDS011;23457;51.966;8.230;2023-03-03T21:47:26;29.05;;;14.27;;
37609;SDS011;23457;51.966;8.230;2023-03-03T21:49:54;34.85;;;14.80;;
37609;SDS011;23457;51.966;8.230;2023-03-03T21:52:21;29.65;;;13.93;;
37609;SDS011;23457;51.966;8.230;2023-03-03T21:54:49;30.75;;;13.82;;
37609;SDS011;23457;51.966;8.230;2023-03-03T21:57:16;30.63;;;13.97;;
37609;SDS011;23457;51.966;8.230;2023-03-03T21:59:43;32.22;;;14.52;;
37609;SDS011;23457;51.966;8.230;2023-03-03T22:02:10;36.42;;;14.38;;
37609;SDS011;23457;51.966;8.230;2023-03-03T22:04:37;38.60;;;15.50;;
37609;SDS011;23457;51.966;8.230;2023-03-03T22:07:04;30.05;;;15.23;;
37609;SDS011;23457;51.966;8.230;2023-03-03T22:09:31;32.67;;;14.27;;
37609;SDS011;23457;51.966;8.230;2023-03-03T22:11:57;30.65;;;11.40;;
37609;SDS011;23457;51.966;8.230;2023-03-03T22:14:24;22.83;;;11.05;;
37609;SDS011;23457;51.966;8.230;2023-03-03T22:16:51;28.48;;;10.98;;
37609;SDS011;23457;51.966;8.230;2023-03-03T22:19:18;24.60;;;7.38;;
37609;SDS011;23457;51.966;8.230;2023-03-03T22:21:44;22.20;;;8.20;;
37609;SDS011;23457;51.966;8.230;2023-03-03T22:24:12;27.05;;;6.65;;
37609;SDS011;23457;51.966;8.230;2023-03-03T22:26:39;23.00;;;6.93;;
37609;SDS011;23457;51.966;8.230;2023-03-03T22:29:07;23.50;;;6.85;;
37609;SDS011;23457;51.966;8.230;2023-03-03T22:31:34;21.45;;;6.63;;
37609;SDS011;23457;51.966;8.230;2023-03-03T22:34:00;19.30;;;6.22;;
37609;SDS011;23457;51.966;8.230;2023-03-03T22:36:27;24.88;;;6.95;;
37609;SDS011;23457;51.966;8.230;2023-03-03T22:38:54;28.67;;;6.97;;
37609;SDS011;23457;51.966;8.230;2023-03-03T22:41:21;23.88;;;7.45;;